Time;durP1;ratioP1;P1;durP2;ratioP2;P2;SDS_P1;SDS_P2;PMS_P1;PMS_P2;Temp;Humidity;BMP_temperature;BMP_pressure;BME280_temperature;BME280_humidity;BME280_pressure;Samples;Min_cycle;Max_cycle;Signal;HPM_P1;HPM_P2
2023/12/15 00:00:14;;;;;;;;;;;;;;;7.83;100.00;101825.69;4994420;28;19939;-96
2023/12/15 00:02:45;;;;;;;;;;;;;;;7.82;100.00;101827.47;4999812;28;19917;-96
2023/12/15 00:05:11;;;;;;;;;;;;;;;7.82;100.00;101829.25;5008142;28;19920;-95
2023/12/15 00:07:47;;;;;;;;;;;;;;;7.82;100.00;101827.47;4984281;28;19927;-95
2023/12/15 00:10:12;;;;;;;;;;;;;;;7.82;100.00;101826.63;4989674;28;19975;-95
2023/12/15 00:12:51;;;;;;;;;;;;;;;;;;;;;
2023/12/15 00:15:22;;;;;;;;;;;;;;;7.82;100.00;101837.16;5003773;28;19919;-95
2023/12/15 00:18:19;;;;;;;;;;;;;;;7.83;100.00;101823.06;5003240;28;19924;-96
2023/12/15 00:20:47;;;;;;;;;;;;;;;7.84;100.00;101827.38;4986123;28;19971;-89
2023/12/15 00:23:16;;;;;;;;;;;;;;;7.85;100.00;101822.97;4988649;28;19921;-88
2023/12/15 00:25:41;;;;;;;;;;;;;;;7.85;100.00;101828.22;4987269;28;20426;-95
2023/12/15 00:28:07;;;;;;;;;;;;;;;7.84;100.00;101831.78;5018868;28;19921;-95
2023/12/15 00:30:33;;;;;;;;;;;;;;;7.85;100.00;101838.75;5002780;28;19929;-95
2023/12/15 00:32:59;;;;;;;;;;;;;;;7.84;100.00;101837.91;4999233;28;19920;-96
2023/12/15 00:35:25;;;;;;;;;;;;;;;7.82;100.00;101851.16;5011985;28;19924;-96
2023/12/15 00:37:54;;;;;;;;;;;;;;;7.85;100.00;101851.94;5003931;28;19925;-96
2023/12/15 00:40:23;;;;;;;;;;;;;;;7.86;100.00;101859.72;5002764;28;19917;-95
2023/12/15 00:42:49;;;;;;;;;;;;;;;7.88;100.00;101849.97;5002828;28;19924;-95
2023/12/15 00:45:15;;;;;;;;;;;;;;;7.90;100.00;101842.81;5018310;28;19975;-96
2023/12/15 00:47:43;;;;;;;;;;;;;;;7.92;100.00;101838.31;5002495;28;19922;-95
2023/12/15 00:50:15;;;;;;;;;;;;;;;7.90;100.00;101828.81;5012974;28;20408;-95
2023/12/15 00:52:40;;;;;;;;;;;;;;;7.89;100.00;101825.31;5000905;28;19921;-96
2023/12/15 00:55:06;;;;;;;;;;;;;;;7.89;100.00;101837.63;5006606;28;19917;-96
2023/12/15 00:57:32;;;;;;;;;;;;;;;7.87;100.00;101845.63;4993328;28;20580;-96
2023/12/15 00:59:58;;;;;;;;;;;;;;;7.86;100.00;101846.56;5000646;28;19963;-95
2023/12/15 01:02:24;;;;;;;;;;;;;;;7.85;100.00;101842.22;4997988;28;19925;-96
2023/12/15 01:05:00;;;;;;;;;;;;;;;7.85;100.00;101847.50;5016982;28;19924;-95
2023/12/15 01:07:26;;;;;;;;;;;;;;;7.85;100.00;101855.38;5024463;28;19928;-96
2023/12/15 01:09:52;;;;;;;;;;;;;;;7.85;100.00;101854.56;4982592;28;19921;-95
2023/12/15 01:12:17;;;;;;;;;;;;;;;7.86;100.00;101856.25;5007564;28;19924;-96
2023/12/15 01:14:43;;;;;;;;;;;;;;;7.87;100.00;101855.31;4984420;28;19938;-96
2023/12/15 01:17:09;;;;;;;;;;;;;;;7.86;100.00;101859.72;5003817;28;20393;-96
2023/12/15 01:19:35;;;;;;;;;;;;;;;7.86;100.00;101865.00;5002394;28;19968;-96
2023/12/15 01:22:01;;;;;;;;;;;;;;;7.86;100.00;101865.00;4984415;28;19960;-95
2023/12/15 01:24:27;;;;;;;;;;;;;;;7.88;100.00;101859.66;4997772;28;19975;-96
2023/12/15 01:26:52;;;;;;;;;;;;;;;7.88;100.00;101857.88;4989450;28;19923;-96
2023/12/15 01:29:18;;;;;;;;;;;;;;;7.89;100.00;101858.69;4998947;28;19921;-95
2023/12/15 01:31:44;;;;;;;;;;;;;;;7.87;100.00;101861.41;4986503;28;19921;-96
2023/12/15 01:34:10;;;;;;;;;;;;;;;7.89;100.00;101856.91;4984641;28;20373;-95
2023/12/15 01:36:37;;;;;;;;;;;;;;;7.88;100.00;101854.38;5013915;28;19917;-95
2023/12/15 01:39:05;;;;;;;;;;;;;;;7.90;100.00;101858.59;4981577;28;19960;-96
2023/12/15 01:41:34;;;;;;;;;;;;;;;7.92;100.00;101850.59;4995091;28;20347;-95
2023/12/15 01:43:59;;;;;;;;;;;;;;;7.92;100.00;101851.47;4982660;28;20027;-96
2023/12/15 01:46:29;;;;;;;;;;;;;;;7.94;100.00;101846.09;4995028;28;20004;-96
2023/12/15 01:48:55;;;;;;;;;;;;;;;7.97;100.00;101853.81;5016271;28;19921;-96
2023/12/15 01:51:21;;;;;;;;;;;;;;;7.98;100.00;101847.59;5003500;28;19990;-96
2023/12/15 01:53:47;;;;;;;;;;;;;;;7.98;100.00;101852.03;5007523;28;19948;-96
2023/12/15 01:56:13;;;;;;;;;;;;;;;7.98;100.00;101847.59;4997260;28;19924;-96
2023/12/15 01:58:41;;;;;;;;;;;;;;;7.96;100.00;101849.50;5001337;28;19917;-96
2023/12/15 02:01:08;;;;;;;;;;;;;;;7.96;100.00;101843.38;4998188;28;20000;-96
2023/12/15 02:03:34;;;;;;;;;;;;;;;7.97;100.00;101834.53;4976566;28;20012;-96
2023/12/15 02:06:03;;;;;;;;;;;;;;;7.95;100.00;101839.91;4988549;28;19917;-96
2023/12/15 02:08:29;;;;;;;;;;;;;;;7.97;100.00;101855.59;5004857;28;19928;-96
2023/12/15 02:10:55;;;;;;;;;;;;;;;7.98;100.00;101857.31;4984626;28;19917;-96
2023/12/15 02:13:21;;;;;;;;;;;;;;;7.96;100.00;101861.81;4995571;28;19917;-96
2023/12/15 02:15:47;;;;;;;;;;;;;;;7.97;100.00;101858.22;4997700;28;19967;-96
2023/12/15 02:18:15;;;;;;;;;;;;;;;7.98;100.00;101859.94;4992852;28;19928;-96
2023/12/15 02:20:41;;;;;;;;;;;;;;;7.95;100.00;101863.59;5002029;28;19923;-96
2023/12/15 02:23:07;;;;;;;;;;;;;;;7.93;100.00;101853.16;5000294;28;20011;-96
2023/12/15 02:25:33;;;;;;;;;;;;;;;7.94;100.00;101839.06;4993840;28;19979;-96
2023/12/15 02:28:06;;;;;;;;;;;;;;;7.93;100.00;101840.00;4989578;28;19920;-96
2023/12/15 02:30:35;;;;;;;;;;;;;;;7.93;100.00;101841.78;4990851;28;20000;-96
2023/12/15 02:33:11;;;;;;;;;;;;;;;7.94;100.00;101838.22;5006245;28;19917;-96
2023/12/15 02:35:39;;;;;;;;;;;;;;;7.94;100.00;101830.31;4994240;28;19917;-96
2023/12/15 02:38:11;;;;;;;;;;;;;;;7.93;100.00;101832.09;4982362;28;19921;-96
2023/12/15 02:40:59;;;;;;;;;;;;;;;7.92;100.00;101819.88;5010722;28;19917;-96
2023/12/15 02:43:26;;;;;;;;;;;;;;;7.91;100.00;101820.81;4993324;28;20365;-96
2023/12/15 02:45:55;;;;;;;;;;;;;;;7.91;100.00;101825.22;4987719;28;20111;-96
2023/12/15 02:48:20;;;;;;;;;;;;;;;7.91;100.00;101817.34;5014424;28;19925;-96
2023/12/15 02:50:46;;;;;;;;;;;;;;;7.92;100.00;101819.03;5007863;28;19917;-96
2023/12/15 02:53:13;;;;;;;;;;;;;;;7.91;100.00;101806.81;5002855;28;19924;-96
2023/12/15 02:55:39;;;;;;;;;;;;;;;7.92;100.00;101798.81;4999980;28;19950;-96
2023/12/15 02:58:05;;;;;;;;;;;;;;;7.92;100.00;101822.50;4985276;28;21164;-96
2023/12/15 03:00:39;;;;;;;;;;;;;;;7.94;100.00;101825.91;4995059;28;19917;-96
2023/12/15 03:03:07;;;;;;;;;;;;;;;7.94;100.00;101830.31;5000968;28;19924;-96
2023/12/15 03:05:35;;;;;;;;;;;;;;;7.94;100.00;101832.94;4985641;28;19921;-96
2023/12/15 03:08:05;;;;;;;;;;;;;;;7.94;100.00;101830.31;5001077;28;20020;-96
2023/12/15 03:10:31;;;;;;;;;;;;;;;7.95;100.00;101826.72;4986305;28;20659;-96
2023/12/15 03:13:05;;;;;;;;;;;;;;;7.97;100.00;101837.16;4999925;28;20004;-96
2023/12/15 03:15:31;;;;;;;;;;;;;;;7.98;100.00;101841.50;4992005;28;19916;-96
2023/12/15 03:17:57;;;;;;;;;;;;;;;7.96;100.00;101836.34;4988373;28;19951;-96
2023/12/15 03:20:25;;;;;;;;;;;;;;;7.97;100.00;101826.63;5003070;28;20010;-96
2023/12/15 03:22:51;;;;;;;;;;;;;;;7.97;100.00;101838.03;5006346;28;19956;-96
2023/12/15 03:25:17;;;;;;;;;;;;;;;7.97;100.00;101843.28;5016905;28;19925;-96
2023/12/15 03:27:43;;;;;;;;;;;;;;;7.96;100.00;101846.03;5005370;28;19917;-96
2023/12/15 03:30:09;;;;;;;;;;;;;;;7.97;100.00;101832.75;4991543;28;19925;-96
2023/12/15 03:32:35;;;;;;;;;;;;;;;7.97;100.00;101840.66;5025659;28;19994;-96
2023/12/15 03:35:02;;;;;;;;;;;;;;;7.97;100.00;101852.97;4993348;28;19917;-96
2023/12/15 03:37:30;;;;;;;;;;;;;;;7.97;100.00;101861.72;5012434;28;19929;-96
2023/12/15 03:39:59;;;;;;;;;;;;;;;7.97;100.00;101864.34;4991471;28;20617;-96
2023/12/15 03:42:29;;;;;;;;;;;;;;;7.96;100.00;101867.94;5028706;28;20390;-96
2023/12/15 03:45:01;;;;;;;;;;;;;;;7.97;100.00;101861.72;5008448;28;20438;-96
2023/12/15 03:47:27;;;;;;;;;;;;;;;7.97;100.00;101858.22;5006431;28;20043;-96
2023/12/15 03:49:53;;;;;;;;;;;;;;;7.98;100.00;101849.41;4994543;28;19967;-96
2023/12/15 03:52:19;;;;;;;;;;;;;;;7.98;100.00;101844.97;5006380;28;20483;-96
2023/12/15 03:54:44;;;;;;;;;;;;;;;7.99;100.00;101840.56;5010603;28;19925;-96
2023/12/15 03:57:10;;;;;;;;;;;;;;;7.99;100.00;101846.69;4996453;28;19917;-96
2023/12/15 03:59:39;;;;;;;;;;;;;;;8.00;100.00;101848.38;4987872;28;20016;-95
2023/12/15 04:02:05;;;;;;;;;;;;;;;8.01;100.00;101844.78;5000509;28;19917;-95
2023/12/15 04:04:32;;;;;;;;;;;;;;;8.01;100.00;101839.53;4994082;28;19920;-95
2023/12/15 04:06:58;;;;;;;;;;;;;;;8.00;100.00;101829.09;5000650;28;19940;-95
2023/12/15 04:09:23;;;;;;;;;;;;;;;7.98;100.00;101833.63;5001030;28;20369;-96
2023/12/15 04:11:49;;;;;;;;;;;;;;;7.95;100.00;101839.91;5016117;28;19921;-95
2023/12/15 04:14:15;;;;;;;;;;;;;;;7.93;100.00;101839.16;4999532;28;19918;-96
2023/12/15 04:16:43;;;;;;;;;;;;;;;7.91;100.00;101838.41;4994911;28;20000;-96
2023/12/15 04:19:09;;;;;;;;;;;;;;;7.90;100.00;101842.81;4999452;28;20481;-96
2023/12/15 04:21:35;;;;;;;;;;;;;;;7.88;100.00;101851.75;4994799;28;19959;-96
2023/12/15 04:24:01;;;;;;;;;;;;;;;7.87;100.00;101847.44;4987845;28;20004;-96
2023/12/15 04:26:30;;;;;;;;;;;;;;;7.87;100.00;101853.53;5007607;28;19921;-96
2023/12/15 04:28:59;;;;;;;;;;;;;;;7.88;100.00;101854.38;5011444;28;19917;-96
2023/12/15 04:31:30;;;;;;;;;;;;;;;7.87;100.00;101869.31;5012736;28;19922;-96
2023/12/15 04:33:56;;;;;;;;;;;;;;;7.86;100.00;101858.88;5009697;28;19959;-96
2023/12/15 04:36:22;;;;;;;;;;;;;;;7.84;100.00;101868.66;4996757;28;19943;-96
2023/12/15 04:38:50;;;;;;;;;;;;;;;7.84;100.00;101882.66;4990197;28;19917;-96
2023/12/15 04:41:20;;;;;;;;;;;;;;;7.82;100.00;101895.06;4986375;28;19923;-96
2023/12/15 04:43:50;;;;;;;;;;;;;;;7.81;100.00;101888.97;4990002;28;19932;-96
2023/12/15 04:46:25;;;;;;;;;;;;;;;7.81;100.00;101891.59;5001579;28;20008;-96
2023/12/15 04:48:55;;;;;;;;;;;;;;;7.83;100.00;101891.50;5020535;28;19925;-96
2023/12/15 04:51:22;;;;;;;;;;;;;;;7.85;100.00;101897.50;5005880;28;19917;-96
2023/12/15 04:53:48;;;;;;;;;;;;;;;7.86;100.00;101906.25;5008176;28;19917;-96
2023/12/15 04:56:17;;;;;;;;;;;;;;;7.87;100.00;101913.25;4997511;28;19937;-96
2023/12/15 04:58:43;;;;;;;;;;;;;;;7.86;100.00;101920.28;4996371;28;19917;-96
2023/12/15 05:01:13;;;;;;;;;;;;;;;7.86;100.00;101914.16;5019919;28;19925;-96
2023/12/15 05:03:45;;;;;;;;;;;;;;;7.89;100.00;101924.50;5006934;28;19925;-96
2023/12/15 05:06:17;;;;;;;;;;;;;;;7.89;100.00;101935.03;4992682;28;19929;-96
2023/12/15 05:08:44;;;;;;;;;;;;;;;7.86;100.00;101937.84;5015387;28;19921;-96
2023/12/15 05:11:10;;;;;;;;;;;;;;;7.85;100.00;101947.53;4990233;28;19945;-96
2023/12/15 05:13:36;;;;;;;;;;;;;;;7.86;100.00;101951.03;4998569;28;19925;-96
2023/12/15 05:16:02;;;;;;;;;;;;;;;7.84;100.00;101958.16;5006950;28;19917;-96
2023/12/15 05:18:28;;;;;;;;;;;;;;;7.81;100.00;101954.78;5005287;28;19917;-96
2023/12/15 05:20:54;;;;;;;;;;;;;;;7.78;100.00;101959.34;4986199;28;19928;-96
2023/12/15 05:23:20;;;;;;;;;;;;;;;7.78;100.00;101962.00;4996105;28;20008;-96
2023/12/15 05:25:45;;;;;;;;;;;;;;;7.73;100.00;101957.00;5003306;28;19920;-96
2023/12/15 05:28:12;;;;;;;;;;;;;;;7.72;100.00;101957.94;5000439;28;19949;-96
2023/12/15 05:30:38;;;;;;;;;;;;;;;7.71;100.00;101966.75;4992280;28;19917;-96
2023/12/15 05:33:04;;;;;;;;;;;;;;;7.72;100.00;101975.50;4993402;28;19940;-96
2023/12/15 05:35:29;;;;;;;;;;;;;;;7.70;100.00;101972.97;5000813;28;19928;-96
2023/12/15 05:37:56;;;;;;;;;;;;;;;7.70;100.00;101965.06;5003382;28;19917;-96
2023/12/15 05:40:21;;;;;;;;;;;;;;;7.68;100.00;101957.25;5001744;28;19992;-96
2023/12/15 05:42:47;;;;;;;;;;;;;;;7.66;100.00;101955.66;4994132;28;19963;-96
2023/12/15 05:45:13;;;;;;;;;;;;;;;7.61;100.00;101958.56;5008341;28;19921;-96
2023/12/15 05:47:40;;;;;;;;;;;;;;;7.56;100.00;101955.34;5010530;28;19921;-96
2023/12/15 05:50:06;;;;;;;;;;;;;;;7.49;100.00;101960.09;4989573;28;19917;-96
2023/12/15 05:52:32;;;;;;;;;;;;;;;7.42;100.00;101966.63;5012670;28;19923;-96
2023/12/15 05:54:58;;;;;;;;;;;;;;;7.36;100.00;101965.19;5004910;28;19977;-96
2023/12/15 05:57:24;;;;;;;;;;;;;;;7.32;100.00;101963.66;5009734;28;19928;-96
2023/12/15 05:59:50;;;;;;;;;;;;;;;7.26;100.00;101959.56;5004403;28;19949;-96
2023/12/15 06:02:17;;;;;;;;;;;;;;;7.20;100.00;101955.50;5005274;28;19924;-96
2023/12/15 06:04:43;;;;;;;;;;;;;;;7.15;100.00;101956.72;5002456;28;19929;-96
2023/12/15 06:07:09;;;;;;;;;;;;;;;7.12;100.00;101964.78;4989734;28;19921;-96
2023/12/15 06:09:36;;;;;;;;;;;;;;;7.08;100.00;101956.19;4996239;28;19917;-96
2023/12/15 06:12:03;;;;;;;;;;;;;;;7.04;100.00;101959.94;5038611;28;19917;-96
2023/12/15 06:14:29;;;;;;;;;;;;;;;7.00;100.00;101958.38;5001987;28;19923;-96
2023/12/15 06:16:55;;;;;;;;;;;;;;;6.95;100.00;101961.25;5001767;28;20020;-96
2023/12/15 06:19:23;;;;;;;;;;;;;;;6.91;100.00;101967.63;5008163;28;19903;-96
2023/12/15 06:21:49;;;;;;;;;;;;;;;6.86;100.00;101970.50;5011475;28;19925;-96
2023/12/15 06:24:15;;;;;;;;;;;;;;;6.82;100.00;101963.69;4994573;28;19925;-96
2023/12/15 06:26:41;;;;;;;;;;;;;;;6.77;100.00;101961.31;4990922;28;19924;-96
2023/12/15 06:29:07;;;;;;;;;;;;;;;6.75;100.00;101976.34;5004781;28;19917;-96
2023/12/15 06:31:36;;;;;;;;;;;;;;;6.68;100.00;101974.94;5004415;28;19923;-96
2023/12/15 06:34:03;;;;;;;;;;;;;;;6.67;100.00;101976.72;5006709;28;19918;-96
2023/12/15 06:36:29;;;;;;;;;;;;;;;6.64;100.00;102000.53;5003735;28;19971;-96
2023/12/15 06:38:55;;;;;;;;;;;;;;;6.63;100.00;101995.34;5000052;28;19968;-96
2023/12/15 06:41:21;;;;;;;;;;;;;;;6.58;100.00;102001.69;4993045;28;19918;-96
2023/12/15 06:43:46;;;;;;;;;;;;;;;6.53;100.00;102000.25;4998886;28;20437;-96
2023/12/15 06:46:12;;;;;;;;;;;;;;;6.49;100.00;102002.19;4986909;28;20281;-96
2023/12/15 06:48:38;;;;;;;;;;;;;;;6.44;100.00;102004.19;4980835;28;19925;-96
2023/12/15 06:51:05;;;;;;;;;;;;;;;6.40;100.00;102019.25;4986418;28;19924;-96
2023/12/15 06:53:31;;;;;;;;;;;;;;;6.41;100.00;102020.97;4984465;28;19917;-96
2023/12/15 06:55:58;;;;;;;;;;;;;;;6.41;100.00;102030.59;4992020;28;20011;-96
2023/12/15 06:58:24;;;;;;;;;;;;;;;6.40;100.00;102035.00;4999648;28;19944;-96
2023/12/15 07:00:50;;;;;;;;;;;;;;;6.37;100.00;102035.16;5008087;28;19948;-96
2023/12/15 07:03:16;;;;;;;;;;;;;;;6.37;100.00;102039.56;5005558;28;19959;-96
2023/12/15 07:05:42;;;;;;;;;;;;;;;6.33;100.00;102037.09;4997550;28;20058;-96
2023/12/15 07:08:11;;;;;;;;;;;;;;;6.31;100.00;102041.56;5002919;28;19923;-96
2023/12/15 07:10:37;;;;;;;;;;;;;;;6.33;100.00;102050.25;4992062;28;19917;-96
2023/12/15 07:13:02;;;;;;;;;;;;;;;6.38;100.00;102054.41;4999322;28;19963;-96
2023/12/15 07:15:31;;;;;;;;;;;;;;;6.44;100.00;102054.94;4993718;28;20362;-96
2023/12/15 07:17:58;;;;;;;;;;;;;;;6.51;100.00;102063.38;5014957;28;19917;-96
2023/12/15 07:20:25;;;;;;;;;;;;;;;6.52;100.00;102059.81;4996050;28;19917;-96
2023/12/15 07:22:51;;;;;;;;;;;;;;;6.56;100.00;102060.50;5010013;28;19924;-96
2023/12/15 07:25:17;;;;;;;;;;;;;;;6.56;100.00;102060.50;5001115;28;19936;-96
2023/12/15 07:27:43;;;;;;;;;;;;;;;6.56;100.00;102056.09;5017934;28;19924;-96
2023/12/15 07:30:08;;;;;;;;;;;;;;;6.56;100.00;102055.25;4986425;28;20277;-96
2023/12/15 07:32:34;;;;;;;;;;;;;;;6.56;100.00;102063.97;4992208;28;19925;-90
2023/12/15 07:35:00;;;;;;;;;;;;;;;6.56;100.00;102063.97;5019968;28;20027;-90
2023/12/15 07:37:25;;;;;;;;;;;;;;;6.58;100.00;102061.25;5011389;28;20384;-90
2023/12/15 07:39:51;;;;;;;;;;;;;;;6.58;100.00;102063.91;5017346;28;19921;-89
2023/12/15 07:42:17;;;;;;;;;;;;;;;6.57;100.00;102065.69;4977475;28;19917;-96
2023/12/15 07:44:42;;;;;;;;;;;;;;;6.56;100.00;102074.47;4990213;28;19930;-96
2023/12/15 07:47:08;;;;;;;;;;;;;;;6.59;100.00;102076.13;4983632;28;19951;-96
2023/12/15 07:49:34;;;;;;;;;;;;;;;6.63;100.00;102071.53;4995508;28;19999;-96
2023/12/15 07:52:00;;;;;;;;;;;;;;;6.63;100.00;102064.53;5009102;28;19921;-96
2023/12/15 07:54:26;;;;;;;;;;;;;;;6.66;100.00;102061.72;5010703;28;20341;-96
2023/12/15 07:56:51;;;;;;;;;;;;;;;6.66;100.00;102063.50;4999733;28;19924;-96
2023/12/15 07:59:17;;;;;;;;;;;;;;;6.70;100.00;102072.94;5006791;28;19917;-96
2023/12/15 08:01:48;;;;;;;;;;;;;;;6.71;100.00;102066.75;5011691;28;19948;-90
2023/12/15 08:04:17;;;;;;;;;;;;;;;6.75;100.00;102070.09;5000003;28;20440;-90
2023/12/15 08:06:43;;;;;;;;;;;;;;;6.77;100.00;102078.75;4993586;28;20377;-96
2023/12/15 08:09:08;;;;;;;;;;;;;;;6.79;100.00;102084.75;4986667;28;19967;-96
2023/12/15 08:11:34;;;;;;;;;;;;;;;6.81;100.00;102075.03;5007384;28;20353;-89
2023/12/15 08:14:02;;;;;;;;;;;;;;;6.82;100.00;102093.34;5014457;28;19925;-90
2023/12/15 08:16:28;;;;;;;;;;;;;;;6.85;100.00;102099.38;4997221;28;19940;-96
2023/12/15 08:18:53;;;;;;;;;;;;;;;6.86;100.00;102099.28;5010249;28;20369;-96
2023/12/15 08:21:19;;;;;;;;;;;;;;;6.88;100.00;102102.69;4999823;28;20020;-96
2023/12/15 08:23:44;;;;;;;;;;;;;;;6.89;100.00;102103.53;4988872;28;20019;-96
2023/12/15 08:26:18;;;;;;;;;;;;;;;6.91;100.00;102105.16;4988595;28;19924;-96
2023/12/15 08:28:44;;;;;;;;;;;;;;;6.92;100.00;102101.59;5000040;28;19920;-96
2023/12/15 08:31:15;;;;;;;;;;;;;;;6.92;100.00;102108.63;5002469;28;19920;-96
2023/12/15 08:33:42;;;;;;;;;;;;;;;6.92;100.00;102116.53;4987331;28;19967;-96
2023/12/15 08:36:08;;;;;;;;;;;;;;;6.90;100.00;102116.59;4978236;28;19918;-96
2023/12/15 08:38:34;;;;;;;;;;;;;;;6.90;100.00;102119.22;5001409;28;19932;-96
2023/12/15 08:41:00;;;;;;;;;;;;;;;6.90;100.00;102116.59;5000188;28;19901;-96
2023/12/15 08:43:26;;;;;;;;;;;;;;;6.94;100.00;102127.81;4987476;28;19924;-96
2023/12/15 08:45:51;;;;;;;;;;;;;;;6.97;100.00;102124.16;4990527;28;19925;-96
2023/12/15 08:48:17;;;;;;;;;;;;;;;6.99;100.00;102117.91;5003113;28;19925;-96
2023/12/15 08:50:44;;;;;;;;;;;;;;;7.01;100.00;102125.69;5020712;28;20361;-96
2023/12/15 08:53:12;;;;;;;;;;;;;;;7.03;100.00;102124.72;5006461;28;19925;-96
2023/12/15 08:55:38;;;;;;;;;;;;;;;7.05;100.00;102119.38;5007551;28;19956;-96
2023/12/15 08:58:04;;;;;;;;;;;;;;;7.10;100.00;102125.25;5005504;28;20015;-96
2023/12/15 09:00:30;;;;;;;;;;;;;;;7.14;100.00;102118.03;5002504;28;19995;-96
2023/12/15 09:02:57;;;;;;;;;;;;;;;7.18;100.00;102124.84;4991220;28;19921;-96
2023/12/15 09:05:23;;;;;;;;;;;;;;;7.21;100.00;102127.31;5012623;28;19928;-96
2023/12/15 09:08:00;;;;;;;;;;;;;;;7.23;100.00;102133.31;5015103;28;19921;-96
2023/12/15 09:10:32;;;;;;;;;;;;;;;7.24;100.00;102134.19;5012543;28;19912;-96
2023/12/15 09:18:42;;;;;;;;;;;;;;;7.23;100.00;102135.94;5139515;22;19932;-93
2023/12/15 09:22:19;;;;;;;;;;;;;;;7.28;100.00;102147.09;5171039;22;19935;-95
2023/12/15 09:25:36;;;;;;;;;;;;;;;7.31;100.00;102136.41;5034752;28;19921;-94
2023/12/15 09:40:42;;;;;;;;;;;;;;;7.49;100.00;102148.66;1216522;22;20179;-98
2023/12/15 09:43:08;;;;;;;;;;;;;;;7.49;100.00;102154.78;5081322;28;19942;-96
2023/12/15 09:45:35;;;;;;;;;;;;;;;7.52;100.00;102157.25;5128108;22;19931;-96
2023/12/15 09:48:04;;;;;;;;;;;;;;;7.57;100.00;102157.88;5082424;28;20406;-96
2023/12/15 09:50:32;;;;;;;;;;;;;;;7.60;100.00;102162.09;5073075;28;19965;-96
2023/12/15 09:52:59;;;;;;;;;;;;;;;7.64;100.00;102166.28;5088776;28;19959;-96
2023/12/15 09:55:26;;;;;;;;;;;;;;;7.68;100.00;102164.31;5120624;28;19912;-96
2023/12/15 09:57:53;;;;;;;;;;;;;;;7.72;100.00;102173.78;5092376;28;19973;-96
2023/12/15 10:00:19;;;;;;;;;;;;;;;7.77;100.00;102174.34;5077031;28;19910;-96
2023/12/15 10:02:56;;;;;;;;;;;;;;;7.80;100.00;102181.25;5083080;28;19916;-96
2023/12/15 10:05:23;;;;;;;;;;;;;;;7.85;100.00;102181.00;5091978;27;19938;-96
2023/12/15 10:07:50;;;;;;;;;;;;;;;7.89;100.00;102182.53;5083732;28;19899;-96
2023/12/15 10:10:18;;;;;;;;;;;;;;;7.94;100.00;102184.00;5100216;28;19916;-96
2023/12/15 10:12:47;;;;;;;;;;;;;;;7.97;100.00;102188.22;5088207;28;19919;-96
2023/12/15 10:15:14;;;;;;;;;;;;;;;8.01;100.00;102200.28;5101889;28;19916;-96
2023/12/15 10:17:45;;;;;;;;;;;;;;;8.05;100.00;102200.97;5100651;28;19998;-96
2023/12/15 10:20:15;;;;;;;;;;;;;;;8.11;100.00;102211.16;5101430;28;19900;-96
2023/12/15 10:22:42;;;;;;;;;;;;;;;8.14;100.00;102211.00;5078472;28;19948;-96
2023/12/15 10:25:16;;;;;;;;;;;;;;;8.20;100.00;102215.09;5094389;28;19931;-96
2023/12/15 10:27:42;;;;;;;;;;;;;;;8.25;100.00;102214.84;5078134;28;19927;-96
2023/12/15 10:30:18;;;;;;;;;;;;;;;8.31;100.00;102217.13;5081730;28;19951;-96
2023/12/15 10:32:53;;;;;;;;;;;;;;;8.34;100.00;102216.09;5085213;28;19912;-96
2023/12/15 10:35:25;;;;;;;;;;;;;;;8.35;100.00;102210.75;5076842;22;20400;-96
2023/12/15 10:37:53;;;;;;;;;;;;;;;8.37;100.00;102210.66;5034039;28;20002;-90
2023/12/15 10:40:18;;;;;;;;;;;;;;;8.41;100.00;102222.72;5036159;28;19917;-90
2023/12/15 10:42:44;;;;;;;;;;;;;;;8.46;100.00;102223.31;5175153;22;19935;-91
2023/12/15 10:45:10;;;;;;;;;;;;;;;8.50;100.00;102229.28;5049051;28;19927;-91
2023/12/15 10:47:36;;;;;;;;;;;;;;;8.54;100.00;102238.69;5052498;22;19925;-91
2023/12/15 10:50:02;;;;;;;;;;;;;;;8.59;100.00;102230.56;5013302;28;19962;-93
2023/12/15 10:55:29;;;;;;;;;;;;;;;8.66;100.00;102224.03;5131666;22;19925;-94
2023/12/15 10:58:00;;;;;;;;;;;;;;;8.70;100.00;102228.16;5038069;28;19967;-96
2023/12/15 11:00:39;;;;;;;;;;;;;;;8.72;100.00;102231.56;5027378;28;19924;-96
2023/12/15 11:03:13;;;;;;;;;;;;;;;8.74;100.00;102224.44;5019922;28;19949;-95
2023/12/15 11:05:42;;;;;;;;;;;;;;;8.76;100.00;102219.06;5045526;28;20019;-92
2023/12/15 11:08:07;;;;;;;;;;;;;;;8.79;100.00;102216.25;5023811;28;19917;-91
2023/12/15 11:10:35;;;;;;;;;;;;;;;8.82;100.00;102210.81;5015614;28;20423;-91
2023/12/15 11:13:00;;;;;;;;;;;;;;;8.84;100.00;102216.81;4999673;28;19917;-91
2023/12/15 11:15:27;;;;;;;;;;;;;;;8.88;100.00;102212.22;5025635;28;20425;-91
2023/12/15 11:17:59;;;;;;;;;;;;;;;8.92;100.00;102230.41;5029377;28;20008;-91
2023/12/15 11:20:26;;;;;;;;;;;;;;;8.96;100.00;102225.81;5015322;28;20647;-91
2023/12/15 11:23:04;;;;;;;;;;;;;;;8.99;100.00;102227.41;4999928;28;19921;-91
2023/12/15 11:25:31;;;;;;;;;;;;;;;9.00;100.00;102229.97;4999175;28;19921;-92
2023/12/15 11:28:00;;;;;;;;;;;;;;;9.02;100.00;102230.75;4999974;28;19921;-91
2023/12/15 11:30:42;;;;;;;;;;;;;;;9.03;100.00;102227.16;5016040;28;19956;-91
2023/12/15 11:33:40;;;;;;;;;;;;;;;9.08;100.00;102226.06;5015405;28;19916;-91
2023/12/15 11:36:09;;;;;;;;;;;;;;;9.13;100.00;102231.88;5018838;28;19947;-92
2023/12/15 11:38:36;;;;;;;;;;;;;;;9.15;100.00;102224.72;5028878;28;20003;-91
2023/12/15 11:41:02;;;;;;;;;;;;;;;9.14;100.00;102223.06;5033267;28;20051;-92
2023/12/15 11:43:31;;;;;;;;;;;;;;;9.16;100.00;102218.50;4999345;28;20344;-91
2023/12/15 11:46:00;;;;;;;;;;;;;;;9.19;100.00;102210.41;5013929;28;19918;-96
2023/12/15 11:48:29;;;;;;;;;;;;;;;9.19;100.00;102205.13;5017095;28;19985;-96
2023/12/15 11:50:56;;;;;;;;;;;;;;;9.21;100.00;102205.03;5024434;28;19921;-92
2023/12/15 11:53:22;;;;;;;;;;;;;;;9.21;100.00;102202.41;5019483;28;19917;-91
2023/12/15 11:55:51;;;;;;;;;;;;;;;9.23;100.00;102197.91;5017888;28;20012;-92
2023/12/15 11:58:18;;;;;;;;;;;;;;;9.23;100.00;102193.47;4997469;28;20335;-91
2023/12/15 12:00:47;;;;;;;;;;;;;;;9.25;100.00;102182.81;5015840;28;19921;-96
2023/12/15 12:03:19;;;;;;;;;;;;;;;9.27;100.00;102179.16;5035220;28;19983;-96
2023/12/15 12:05:53;;;;;;;;;;;;;;;9.33;100.00;102166.53;5028725;28;19921;-91
2023/12/15 12:08:21;;;;;;;;;;;;;;;9.41;100.00;102164.28;5025513;28;19917;-92
2023/12/15 12:10:47;;;;;;;;;;;;;;;9.48;100.00;102160.31;4999837;28;19928;-91
2023/12/15 12:13:14;;;;;;;;;;;;;;;9.59;100.00;102159.63;5029039;28;20374;-92
2023/12/15 12:15:50;;;;;;;;;;;;;;;9.69;100.00;102159.91;5021047;28;19921;-96
2023/12/15 12:18:17;;;;;;;;;;;;;;;9.79;100.00;102150.47;5014087;28;19967;-95
2023/12/15 12:20:46;;;;;;;;;;;;;;;9.90;100.00;102146.31;5027727;28;19917;-95
2023/12/15 12:23:12;;;;;;;;;;;;;;;9.98;100.00;102145.81;5025971;28;19917;-95
2023/12/15 12:25:47;;;;;;;;;;;;;;;10.06;100.00;102151.47;5029190;28;19921;-92
2023/12/15 12:28:13;;;;;;;;;;;;;;;10.12;100.00;102148.44;5031722;28;19917;-91
2023/12/15 12:30:39;;;;;;;;;;;;;;;10.15;100.00;102155.28;5038939;28;19917;-91
2023/12/15 12:33:07;;;;;;;;;;;;;;;10.14;100.00;102158.91;5006963;28;20373;-92
2023/12/15 12:35:33;;;;;;;;;;;;;;;10.17;100.00;102156.91;5014725;28;19991;-91
2023/12/15 12:37:59;;;;;;;;;;;;;;;10.18;100.00;102157.75;5012539;28;20428;-91
2023/12/15 12:40:24;;;;;;;;;;;;;;;10.23;100.00;102158.28;5004240;28;19971;-92
2023/12/15 12:42:50;;;;;;;;;;;;;;;10.22;100.00;102156.63;5014130;28;19917;-91
2023/12/15 12:45:16;;;;;;;;;;;;;;;10.22;100.00;102153.97;5003257;28;20006;-90
2023/12/15 12:47:44;;;;;;;;;;;;;;;10.24;100.00;102152.06;5000685;28;19917;-91
2023/12/15 12:50:10;;;;;;;;;;;;;;;10.23;100.00;102153.00;5001374;28;19917;-91
2023/12/15 12:52:36;;;;;;;;;;;;;;;10.28;100.00;102155.34;5018298;28;20391;-91
2023/12/15 12:55:06;;;;;;;;;;;;;;;10.30;100.00;102164.88;5014909;28;19933;-91
2023/12/15 12:57:32;;;;;;;;;;;;;;;10.33;100.00;102162.97;5023576;28;19924;-92
2023/12/15 12:59:58;;;;;;;;;;;;;;;10.32;100.00;102156.84;5002256;28;19917;-91
2023/12/15 13:02:24;;;;;;;;;;;;;;;10.31;100.00;102160.44;5018725;28;19924;-91